sensor_id;sensor_type;location;lat;lon;timestamp;P1;durP1;ratioP1;P2;durP2;ratioP2
79464;SDS011;68932;47.410;8.232;2024-03-06T00:00:59;1.50;;;1.30;;
79464;SDS011;68932;47.410;8.232;2024-03-06T00:03:27;2.00;;;1.80;;
79464;SDS011;68932;47.410;8.232;2024-03-06T00:05:56;1.50;;;1.40;;
79464;SDS011;68932;47.410;8.232;2024-03-06T00:08:24;1.90;;;1.50;;
79464;SDS011;68932;47.410;8.232;2024-03-06T00:10:52;1.80;;;1.70;;
79464;SDS011;68932;47.410;8.232;2024-03-06T00:13:20;2.10;;;1.50;;
79464;SDS011;68932;47.410;8.232;2024-03-06T00:15:49;2.00;;;1.60;;
79464;SDS011;68932;47.410;8.232;2024-03-06T00:18:17;2.00;;;1.70;;
79464;SDS011;68932;47.410;8.232;2024-03-06T00:20:45;1.50;;;1.30;;
79464;SDS011;68932;47.410;8.232;2024-03-06T00:23:13;1.70;;;1.40;;
79464;SDS011;68932;47.410;8.232;2024-03-06T00:25:42;1.70;;;1.60;;
79464;SDS011;68932;47.410;8.232;2024-03-06T00:28:10;1.90;;;1.70;;
79464;SDS011;68932;47.410;8.232;2024-03-06T00:30:38;1.80;;;1.70;;
79464;SDS011;68932;47.410;8.232;2024-03-06T00:33:07;2.30;;;1.60;;
79464;SDS011;68932;47.410;8.232;2024-03-06T00:35:35;1.80;;;1.70;;
79464;SDS011;68932;47.410;8.232;2024-03-06T00:38:03;1.70;;;1.60;;
79464;SDS011;68932;47.410;8.232;2024-03-06T00:40:32;2.80;;;1.30;;
79464;SDS011;68932;47.410;8.232;2024-03-06T00:43:00;1.80;;;1.50;;
79464;SDS011;68932;47.410;8.232;2024-03-06T00:45:28;1.90;;;1.70;;
79464;SDS011;68932;47.410;8.232;2024-03-06T00:47:57;2.40;;;2.20;;
79464;SDS011;68932;47.410;8.232;2024-03-06T00:50:25;2.00;;;1.30;;
79464;SDS011;68932;47.410;8.232;2024-03-06T00:52:53;1.70;;;1.20;;
79464;SDS011;68932;47.410;8.232;2024-03-06T00:55:21;1.60;;;1.40;;
79464;SDS011;68932;47.410;8.232;2024-03-06T00:57:50;1.40;;;1.20;;
79464;SDS011;68932;47.410;8.232;2024-03-06T01:00:19;1.50;;;1.40;;
79464;SDS011;68932;47.410;8.232;2024-03-06T01:02:47;2.30;;;1.50;;
79464;SDS011;68932;47.410;8.232;2024-03-06T01:05:16;2.10;;;1.30;;
79464;SDS011;68932;47.410;8.232;2024-03-06T01:07:44;1.70;;;1.60;;
79464;SDS011;68932;47.410;8.232;2024-03-06T01:10:13;1.80;;;1.50;;
79464;SDS011;68932;47.410;8.232;2024-03-06T01:12:41;1.60;;;1.50;;
79464;SDS011;68932;47.410;8.232;2024-03-06T01:15:09;1.50;;;1.30;;
79464;SDS011;68932;47.410;8.232;2024-03-06T01:17:38;1.90;;;1.50;;
79464;SDS011;68932;47.410;8.232;2024-03-06T01:20:07;1.90;;;1.60;;
79464;SDS011;68932;47.410;8.232;2024-03-06T01:22:36;2.00;;;1.60;;
79464;SDS011;68932;47.410;8.232;2024-03-06T01:25:06;1.70;;;1.60;;
79464;SDS011;68932;47.410;8.232;2024-03-06T01:27:34;3.00;;;1.80;;
79464;SDS011;68932;47.410;8.232;2024-03-06T01:30:03;1.70;;;1.30;;
79464;SDS011;68932;47.410;8.232;2024-03-06T01:32:33;1.80;;;1.70;;
79464;SDS011;68932;47.410;8.232;2024-03-06T01:35:01;1.90;;;1.70;;
79464;SDS011;68932;47.410;8.232;2024-03-06T01:37:30;2.40;;;2.20;;
79464;SDS011;68932;47.410;8.232;2024-03-06T01:39:58;1.60;;;1.30;;
79464;SDS011;68932;47.410;8.232;2024-03-06T01:42:26;2.20;;;1.70;;
79464;SDS011;68932;47.410;8.232;2024-03-06T01:44:54;2.00;;;1.30;;
79464;SDS011;68932;47.410;8.232;2024-03-06T01:47:23;1.60;;;1.50;;
79464;SDS011;68932;47.410;8.232;2024-03-06T01:49:51;1.80;;;1.60;;
79464;SDS011;68932;47.410;8.232;2024-03-06T01:52:20;1.60;;;1.50;;
79464;SDS011;68932;47.410;8.232;2024-03-06T01:54:49;1.80;;;1.70;;
79464;SDS011;68932;47.410;8.232;2024-03-06T01:57:18;2.20;;;2.00;;
79464;SDS011;68932;47.410;8.232;2024-03-06T01:59:47;1.80;;;1.50;;
79464;SDS011;68932;47.410;8.232;2024-03-06T02:02:17;2.50;;;1.60;;
79464;SDS011;68932;47.410;8.232;2024-03-06T02:04:45;1.30;;;1.10;;
79464;SDS011;68932;47.410;8.232;2024-03-06T02:07:14;2.00;;;1.20;;
79464;SDS011;68932;47.410;8.232;2024-03-06T02:09:42;2.10;;;1.30;;
79464;SDS011;68932;47.410;8.232;2024-03-06T02:12:11;2.80;;;2.10;;
79464;SDS011;68932;47.410;8.232;2024-03-06T02:14:40;1.40;;;1.30;;
79464;SDS011;68932;47.410;8.232;2024-03-06T02:17:09;2.20;;;1.60;;
79464;SDS011;68932;47.410;8.232;2024-03-06T02:19:38;1.60;;;1.50;;
79464;SDS011;68932;47.410;8.232;2024-03-06T02:22:08;1.60;;;1.30;;
79464;SDS011;68932;47.410;8.232;2024-03-06T02:24:36;1.30;;;1.20;;
79464;SDS011;68932;47.410;8.232;2024-03-06T02:27:09;2.10;;;2.00;;
79464;SDS011;68932;47.410;8.232;2024-03-06T02:29:37;1.80;;;1.60;;
79464;SDS011;68932;47.410;8.232;2024-03-06T02:32:05;1.60;;;1.50;;
79464;SDS011;68932;47.410;8.232;2024-03-06T02:34:34;1.50;;;1.30;;
79464;SDS011;68932;47.410;8.232;2024-03-06T02:37:02;2.60;;;1.30;;
79464;SDS011;68932;47.410;8.232;2024-03-06T02:39:30;1.90;;;1.70;;
79464;SDS011;68932;47.410;8.232;2024-03-06T02:41:59;1.90;;;1.80;;
79464;SDS011;68932;47.410;8.232;2024-03-06T02:44:27;1.60;;;1.40;;
79464;SDS011;68932;47.410;8.232;2024-03-06T02:46:55;1.40;;;1.30;;
79464;SDS011;68932;47.410;8.232;2024-03-06T02:49:23;1.30;;;1.20;;
79464;SDS011;68932;47.410;8.232;2024-03-06T02:51:52;1.70;;;1.60;;
79464;SDS011;68932;47.410;8.232;2024-03-06T02:54:20;1.80;;;1.70;;
79464;SDS011;68932;47.410;8.232;2024-03-06T02:56:48;1.50;;;1.40;;
79464;SDS011;68932;47.410;8.232;2024-03-06T02:59:19;1.40;;;1.30;;
79464;SDS011;68932;47.410;8.232;2024-03-06T03:01:47;2.50;;;2.30;;
79464;SDS011;68932;47.410;8.232;2024-03-06T03:04:15;1.60;;;1.50;;
79464;SDS011;68932;47.410;8.232;2024-03-06T03:06:44;1.90;;;1.60;;
79464;SDS011;68932;47.410;8.232;2024-03-06T03:09:12;2.00;;;1.80;;
79464;SDS011;68932;47.410;8.232;2024-03-06T03:11:40;1.60;;;1.40;;
79464;SDS011;68932;47.410;8.232;2024-03-06T03:14:10;2.00;;;1.90;;
79464;SDS011;68932;47.410;8.232;2024-03-06T03:16:38;1.70;;;1.60;;
79464;SDS011;68932;47.410;8.232;2024-03-06T03:19:06;2.80;;;1.50;;
79464;SDS011;68932;47.410;8.232;2024-03-06T03:21:34;2.20;;;2.00;;
79464;SDS011;68932;47.410;8.232;2024-03-06T03:24:03;1.50;;;1.40;;
79464;SDS011;68932;47.410;8.232;2024-03-06T03:26:32;2.70;;;2.50;;
79464;SDS011;68932;47.410;8.232;2024-03-06T03:29:00;1.70;;;1.60;;
79464;SDS011;68932;47.410;8.232;2024-03-06T03:31:29;1.80;;;1.60;;
79464;SDS011;68932;47.410;8.232;2024-03-06T03:33:57;1.60;;;1.30;;
79464;SDS011;68932;47.410;8.232;2024-03-06T03:36:25;1.80;;;1.60;;
79464;SDS011;68932;47.410;8.232;2024-03-06T03:38:54;1.50;;;1.40;;
79464;SDS011;68932;47.410;8.232;2024-03-06T03:41:22;1.60;;;1.50;;
79464;SDS011;68932;47.410;8.232;2024-03-06T03:43:50;2.30;;;1.70;;
79464;SDS011;68932;47.410;8.232;2024-03-06T03:46:18;1.70;;;1.50;;
79464;SDS011;68932;47.410;8.232;2024-03-06T03:48:47;1.80;;;1.60;;
79464;SDS011;68932;47.410;8.232;2024-03-06T03:51:15;1.50;;;1.20;;
79464;SDS011;68932;47.410;8.232;2024-03-06T03:53:43;1.90;;;1.50;;
79464;SDS011;68932;47.410;8.232;2024-03-06T03:56:12;1.60;;;1.40;;
79464;SDS011;68932;47.410;8.232;2024-03-06T03:58:40;1.60;;;1.30;;
79464;SDS011;68932;47.410;8.232;2024-03-06T04:01:11;1.90;;;1.60;;
79464;SDS011;68932;47.410;8.232;2024-03-06T04:03:39;1.90;;;1.80;;
79464;SDS011;68932;47.410;8.232;2024-03-06T04:06:08;2.10;;;1.80;;
79464;SDS011;68932;47.410;8.232;2024-03-06T04:08:36;3.60;;;2.90;;
79464;SDS011;68932;47.410;8.232;2024-03-06T04:11:05;3.50;;;3.00;;
79464;SDS011;68932;47.410;8.232;2024-03-06T04:13:34;3.50;;;3.20;;
79464;SDS011;68932;47.410;8.232;2024-03-06T04:16:03;3.20;;;2.70;;
79464;SDS011;68932;47.410;8.232;2024-03-06T04:18:32;2.90;;;2.60;;
79464;SDS011;68932;47.410;8.232;2024-03-06T04:21:01;3.70;;;3.20;;
79464;SDS011;68932;47.410;8.232;2024-03-06T04:23:30;2.40;;;2.10;;
79464;SDS011;68932;47.410;8.232;2024-03-06T04:25:59;2.60;;;2.40;;
79464;SDS011;68932;47.410;8.232;2024-03-06T04:28:27;2.50;;;2.30;;
79464;SDS011;68932;47.410;8.232;2024-03-06T04:30:56;3.20;;;2.50;;
79464;SDS011;68932;47.410;8.232;2024-03-06T04:33:24;3.00;;;2.60;;
79464;SDS011;68932;47.410;8.232;2024-03-06T04:35:52;3.70;;;3.10;;
79464;SDS011;68932;47.410;8.232;2024-03-06T04:38:20;3.50;;;2.90;;
79464;SDS011;68932;47.410;8.232;2024-03-06T04:40:49;2.80;;;2.40;;
79464;SDS011;68932;47.410;8.232;2024-03-06T04:43:17;3.00;;;2.30;;
79464;SDS011;68932;47.410;8.232;2024-03-06T04:45:45;3.70;;;3.00;;
79464;SDS011;68932;47.410;8.232;2024-03-06T04:48:13;3.10;;;2.80;;
79464;SDS011;68932;47.410;8.232;2024-03-06T04:50:42;3.20;;;2.80;;
79464;SDS011;68932;47.410;8.232;2024-03-06T04:53:10;2.70;;;2.30;;
79464;SDS011;68932;47.410;8.232;2024-03-06T04:55:38;2.80;;;2.50;;
79464;SDS011;68932;47.410;8.232;2024-03-06T04:58:06;3.20;;;2.90;;
79464;SDS011;68932;47.410;8.232;2024-03-06T05:00:35;3.60;;;2.30;;
79464;SDS011;68932;47.410;8.232;2024-03-06T05:03:03;3.10;;;2.80;;
79464;SDS011;68932;47.410;8.232;2024-03-06T05:05:32;3.30;;;3.00;;
79464;SDS011;68932;47.410;8.232;2024-03-06T05:08:00;3.60;;;3.00;;
79464;SDS011;68932;47.410;8.232;2024-03-06T05:10:28;3.40;;;3.10;;
79464;SDS011;68932;47.410;8.232;2024-03-06T05:12:56;4.00;;;2.70;;
79464;SDS011;68932;47.410;8.232;2024-03-06T05:15:24;3.20;;;2.90;;
79464;SDS011;68932;47.410;8.232;2024-03-06T05:17:53;2.90;;;2.60;;
79464;SDS011;68932;47.410;8.232;2024-03-06T05:20:21;3.60;;;2.80;;
79464;SDS011;68932;47.410;8.232;2024-03-06T05:22:49;3.80;;;3.00;;
79464;SDS011;68932;47.410;8.232;2024-03-06T05:25:17;3.40;;;3.10;;
79464;SDS011;68932;47.410;8.232;2024-03-06T05:27:46;3.40;;;2.60;;
79464;SDS011;68932;47.410;8.232;2024-03-06T05:30:14;3.20;;;2.80;;
79464;SDS011;68932;47.410;8.232;2024-03-06T05:32:42;4.30;;;3.30;;
79464;SDS011;68932;47.410;8.232;2024-03-06T05:35:11;4.10;;;3.30;;
79464;SDS011;68932;47.410;8.232;2024-03-06T05:37:39;4.00;;;3.00;;
79464;SDS011;68932;47.410;8.232;2024-03-06T05:40:08;3.20;;;2.90;;
79464;SDS011;68932;47.410;8.232;2024-03-06T05:42:38;2.90;;;2.60;;
79464;SDS011;68932;47.410;8.232;2024-03-06T05:45:07;3.70;;;3.30;;
79464;SDS011;68932;47.410;8.232;2024-03-06T05:47:35;3.90;;;2.70;;
79464;SDS011;68932;47.410;8.232;2024-03-06T05:50:05;4.30;;;3.60;;
79464;SDS011;68932;47.410;8.232;2024-03-06T05:52:34;3.90;;;3.00;;
79464;SDS011;68932;47.410;8.232;2024-03-06T05:55:03;5.90;;;3.90;;
79464;SDS011;68932;47.410;8.232;2024-03-06T05:57:32;4.10;;;3.50;;
79464;SDS011;68932;47.410;8.232;2024-03-06T06:00:01;4.10;;;3.50;;
79464;SDS011;68932;47.410;8.232;2024-03-06T06:02:30;5.50;;;3.50;;
79464;SDS011;68932;47.410;8.232;2024-03-06T06:04:58;4.40;;;3.00;;
79464;SDS011;68932;47.410;8.232;2024-03-06T06:07:26;4.70;;;4.20;;
79464;SDS011;68932;47.410;8.232;2024-03-06T06:09:55;3.90;;;3.00;;
79464;SDS011;68932;47.410;8.232;2024-03-06T06:12:23;4.10;;;3.10;;
79464;SDS011;68932;47.410;8.232;2024-03-06T06:14:51;5.20;;;3.90;;
79464;SDS011;68932;47.410;8.232;2024-03-06T06:17:19;6.10;;;4.80;;
79464;SDS011;68932;47.410;8.232;2024-03-06T06:19:48;6.80;;;4.30;;
79464;SDS011;68932;47.410;8.232;2024-03-06T06:22:16;4.70;;;3.60;;
79464;SDS011;68932;47.410;8.232;2024-03-06T06:24:44;4.30;;;3.50;;
79464;SDS011;68932;47.410;8.232;2024-03-06T06:27:12;4.20;;;3.80;;
79464;SDS011;68932;47.410;8.232;2024-03-06T06:29:41;7.50;;;3.30;;
79464;SDS011;68932;47.410;8.232;2024-03-06T06:32:09;4.10;;;3.10;;
79464;SDS011;68932;47.410;8.232;2024-03-06T06:34:37;4.70;;;3.70;;
79464;SDS011;68932;47.410;8.232;2024-03-06T06:37:06;3.80;;;3.40;;
79464;SDS011;68932;47.410;8.232;2024-03-06T06:39:34;4.30;;;3.40;;
79464;SDS011;68932;47.410;8.232;2024-03-06T06:42:02;5.40;;;3.80;;
79464;SDS011;68932;47.410;8.232;2024-03-06T06:44:30;4.50;;;3.30;;
79464;SDS011;68932;47.410;8.232;2024-03-06T06:46:59;4.40;;;3.70;;
79464;SDS011;68932;47.410;8.232;2024-03-06T06:49:27;4.20;;;3.30;;
79464;SDS011;68932;47.410;8.232;2024-03-06T06:51:55;3.50;;;2.90;;
79464;SDS011;68932;47.410;8.232;2024-03-06T06:54:23;4.00;;;3.20;;
79464;SDS011;68932;47.410;8.232;2024-03-06T06:56:52;3.60;;;2.90;;
79464;SDS011;68932;47.410;8.232;2024-03-06T06:59:20;3.40;;;3.00;;
79464;SDS011;68932;47.410;8.232;2024-03-06T07:01:48;5.50;;;3.40;;
79464;SDS011;68932;47.410;8.232;2024-03-06T07:04:16;3.60;;;2.80;;
79464;SDS011;68932;47.410;8.232;2024-03-06T07:06:45;3.60;;;3.10;;
79464;SDS011;68932;47.410;8.232;2024-03-06T07:09:13;3.90;;;2.70;;
79464;SDS011;68932;47.410;8.232;2024-03-06T07:11:41;4.20;;;3.10;;
79464;SDS011;68932;47.410;8.232;2024-03-06T07:14:10;3.60;;;3.30;;
79464;SDS011;68932;47.410;8.232;2024-03-06T07:16:42;4.40;;;3.70;;
79464;SDS011;68932;47.410;8.232;2024-03-06T07:19:11;4.80;;;3.80;;
79464;SDS011;68932;47.410;8.232;2024-03-06T07:21:39;4.70;;;4.00;;
79464;SDS011;68932;47.410;8.232;2024-03-06T07:24:07;4.90;;;4.40;;
79464;SDS011;68932;47.410;8.232;2024-03-06T07:26:35;5.80;;;3.70;;
79464;SDS011;68932;47.410;8.232;2024-03-06T07:29:04;6.50;;;4.60;;
79464;SDS011;68932;47.410;8.232;2024-03-06T07:31:32;9.70;;;5.80;;
79464;SDS011;68932;47.410;8.232;2024-03-06T07:34:00;6.40;;;4.70;;
79464;SDS011;68932;47.410;8.232;2024-03-06T07:36:28;4.90;;;3.60;;
79464;SDS011;68932;47.410;8.232;2024-03-06T07:38:56;4.80;;;4.20;;
79464;SDS011;68932;47.410;8.232;2024-03-06T07:41:25;6.80;;;3.80;;
79464;SDS011;68932;47.410;8.232;2024-03-06T07:43:53;10.40;;;7.10;;
79464;SDS011;68932;47.410;8.232;2024-03-06T07:46:21;9.30;;;6.10;;
79464;SDS011;68932;47.410;8.232;2024-03-06T07:48:50;4.50;;;4.10;;
79464;SDS011;68932;47.410;8.232;2024-03-06T07:51:18;5.00;;;4.50;;
79464;SDS011;68932;47.410;8.232;2024-03-06T07:53:46;4.40;;;3.50;;
79464;SDS011;68932;47.410;8.232;2024-03-06T07:56:14;4.70;;;3.80;;
79464;SDS011;68932;47.410;8.232;2024-03-06T07:58:43;5.00;;;3.60;;
79464;SDS011;68932;47.410;8.232;2024-03-06T08:01:11;4.20;;;3.70;;
79464;SDS011;68932;47.410;8.232;2024-03-06T08:03:40;4.00;;;3.20;;
79464;SDS011;68932;47.410;8.232;2024-03-06T08:06:08;4.40;;;3.40;;
79464;SDS011;68932;47.410;8.232;2024-03-06T08:08:39;4.50;;;3.00;;
79464;SDS011;68932;47.410;8.232;2024-03-06T08:11:08;4.10;;;3.70;;
79464;SDS011;68932;47.410;8.232;2024-03-06T08:13:37;3.60;;;3.30;;
79464;SDS011;68932;47.410;8.232;2024-03-06T08:16:06;3.50;;;2.90;;
79464;SDS011;68932;47.410;8.232;2024-03-06T08:18:35;3.60;;;3.00;;
79464;SDS011;68932;47.410;8.232;2024-03-06T08:21:04;4.10;;;3.40;;
79464;SDS011;68932;47.410;8.232;2024-03-06T08:23:32;3.90;;;3.30;;
79464;SDS011;68932;47.410;8.232;2024-03-06T08:26:01;4.40;;;3.10;;
79464;SDS011;68932;47.410;8.232;2024-03-06T08:28:29;4.80;;;3.50;;
79464;SDS011;68932;47.410;8.232;2024-03-06T08:30:57;4.60;;;3.30;;
79464;SDS011;68932;47.410;8.232;2024-03-06T08:33:26;4.20;;;3.40;;
79464;SDS011;68932;47.410;8.232;2024-03-06T08:35:54;3.70;;;3.30;;
79464;SDS011;68932;47.410;8.232;2024-03-06T08:38:22;4.70;;;3.60;;
79464;SDS011;68932;47.410;8.232;2024-03-06T08:40:51;3.50;;;3.20;;
79464;SDS011;68932;47.410;8.232;2024-03-06T08:43:19;3.70;;;3.20;;
79464;SDS011;68932;47.410;8.232;2024-03-06T08:45:47;4.10;;;2.70;;
79464;SDS011;68932;47.410;8.232;2024-03-06T08:48:15;3.30;;;2.80;;
79464;SDS011;68932;47.410;8.232;2024-03-06T08:50:44;4.10;;;2.70;;
79464;SDS011;68932;47.410;8.232;2024-03-06T08:53:12;3.50;;;3.00;;
79464;SDS011;68932;47.410;8.232;2024-03-06T08:55:40;4.10;;;3.20;;
79464;SDS011;68932;47.410;8.232;2024-03-06T08:58:09;3.20;;;2.50;;
79464;SDS011;68932;47.410;8.232;2024-03-06T09:00:37;3.90;;;2.70;;
79464;SDS011;68932;47.410;8.232;2024-03-06T09:03:05;4.20;;;3.80;;
79464;SDS011;68932;47.410;8.232;2024-03-06T09:05:34;3.70;;;3.30;;
79464;SDS011;68932;47.410;8.232;2024-03-06T09:08:02;3.70;;;3.30;;
79464;SDS011;68932;47.410;8.232;2024-03-06T09:10:31;5.90;;;4.10;;
79464;SDS011;68932;47.410;8.232;2024-03-06T09:12:59;4.20;;;3.60;;
79464;SDS011;68932;47.410;8.232;2024-03-06T09:15:27;4.60;;;4.00;;
79464;SDS011;68932;47.410;8.232;2024-03-06T09:17:55;5.90;;;4.60;;
79464;SDS011;68932;47.410;8.232;2024-03-06T09:20:24;7.00;;;4.30;;
79464;SDS011;68932;47.410;8.232;2024-03-06T09:22:52;6.80;;;4.30;;
79464;SDS011;68932;47.410;8.232;2024-03-06T09:25:20;3.90;;;3.50;;
79464;SDS011;68932;47.410;8.232;2024-03-06T09:27:49;5.70;;;4.60;;
79464;SDS011;68932;47.410;8.232;2024-03-06T09:30:17;5.60;;;4.80;;
79464;SDS011;68932;47.410;8.232;2024-03-06T09:32:45;4.10;;;3.70;;
79464;SDS011;68932;47.410;8.232;2024-03-06T09:35:14;4.20;;;3.70;;
79464;SDS011;68932;47.410;8.232;2024-03-06T09:37:42;4.40;;;3.20;;
79464;SDS011;68932;47.410;8.232;2024-03-06T09:40:16;4.50;;;3.70;;
79464;SDS011;68932;47.410;8.232;2024-03-06T09:42:48;4.50;;;4.00;;
79464;SDS011;68932;47.410;8.232;2024-03-06T09:45:16;5.30;;;3.70;;
79464;SDS011;68932;47.410;8.232;2024-03-06T09:47:45;4.30;;;3.90;;
79464;SDS011;68932;47.410;8.232;2024-03-06T09:50:16;5.00;;;4.00;;
79464;SDS011;68932;47.410;8.232;2024-03-06T09:52:46;4.50;;;3.80;;
79464;SDS011;68932;47.410;8.232;2024-03-06T09:55:17;5.50;;;3.80;;
79464;SDS011;68932;47.410;8.232;2024-03-06T09:57:46;5.60;;;5.00;;
79464;SDS011;68932;47.410;8.232;2024-03-06T10:00:15;5.40;;;4.20;;
79464;SDS011;68932;47.410;8.232;2024-03-06T10:02:46;4.70;;;4.10;;
79464;SDS011;68932;47.410;8.232;2024-03-06T10:05:24;5.80;;;4.70;;
79464;SDS011;68932;47.410;8.232;2024-03-06T10:07:52;5.00;;;4.00;;
79464;SDS011;68932;47.410;8.232;2024-03-06T10:10:21;5.20;;;4.40;;
79464;SDS011;68932;47.410;8.232;2024-03-06T10:12:50;4.80;;;4.00;;
79464;SDS011;68932;47.410;8.232;2024-03-06T10:15:18;4.50;;;4.00;;
79464;SDS011;68932;47.410;8.232;2024-03-06T10:17:47;6.70;;;4.60;;
79464;SDS011;68932;47.410;8.232;2024-03-06T10:20:19;5.10;;;4.40;;
79464;SDS011;68932;47.410;8.232;2024-03-06T10:22:50;4.60;;;3.80;;
79464;SDS011;68932;47.410;8.232;2024-03-06T10:25:20;5.30;;;4.20;;
79464;SDS011;68932;47.410;8.232;2024-03-06T10:30:47;4.10;;;3.10;;
79464;SDS011;68932;47.410;8.232;2024-03-06T10:33:17;5.00;;;4.10;;
79464;SDS011;68932;47.410;8.232;2024-03-06T10:35:47;4.60;;;3.70;;
79464;SDS011;68932;47.410;8.232;2024-03-06T10:38:15;5.10;;;4.50;;
79464;SDS011;68932;47.410;8.232;2024-03-06T10:40:46;4.60;;;4.10;;
79464;SDS011;68932;47.410;8.232;2024-03-06T10:43:17;5.40;;;4.90;;
79464;SDS011;68932;47.410;8.232;2024-03-06T10:45:48;5.20;;;4.70;;
79464;SDS011;68932;47.410;8.232;2024-03-06T10:48:17;5.00;;;4.40;;
79464;SDS011;68932;47.410;8.232;2024-03-06T10:50:46;4.80;;;4.00;;
79464;SDS011;68932;47.410;8.232;2024-03-06T10:53:16;6.10;;;4.40;;
79464;SDS011;68932;47.410;8.232;2024-03-06T10:55:45;4.70;;;3.80;;
79464;SDS011;68932;47.410;8.232;2024-03-06T10:58:15;5.80;;;4.00;;
79464;SDS011;68932;47.410;8.232;2024-03-06T11:00:45;4.10;;;3.70;;
79464;SDS011;68932;47.410;8.232;2024-03-06T11:03:14;4.90;;;4.10;;
79464;SDS011;68932;47.410;8.232;2024-03-06T11:05:43;5.70;;;5.10;;
79464;SDS011;68932;47.410;8.232;2024-03-06T11:08:12;5.50;;;5.00;;
79464;SDS011;68932;47.410;8.232;2024-03-06T11:10:42;4.50;;;3.10;;
79464;SDS011;68932;47.410;8.232;2024-03-06T11:13:22;4.70;;;2.80;;
79464;SDS011;68932;47.410;8.232;2024-03-06T11:15:51;3.60;;;3.30;;
79464;SDS011;68932;47.410;8.232;2024-03-06T11:24:14;5.00;;;4.20;;
79464;SDS011;68932;47.410;8.232;2024-03-06T11:26:43;6.80;;;4.20;;
79464;SDS011;68932;47.410;8.232;2024-03-06T11:29:15;5.70;;;3.70;;
79464;SDS011;68932;47.410;8.232;2024-03-06T11:31:57;4.70;;;3.60;;
79464;SDS011;68932;47.410;8.232;2024-03-06T11:34:26;4.40;;;4.00;;
79464;SDS011;68932;47.410;8.232;2024-03-06T11:36:55;5.00;;;4.00;;
79464;SDS011;68932;47.410;8.232;2024-03-06T11:39:27;4.00;;;3.50;;
79464;SDS011;68932;47.410;8.232;2024-03-06T11:41:59;5.40;;;4.00;;
79464;SDS011;68932;47.410;8.232;2024-03-06T11:44:27;5.60;;;4.10;;
79464;SDS011;68932;47.410;8.232;2024-03-06T11:46:58;5.50;;;4.10;;
79464;SDS011;68932;47.410;8.232;2024-03-06T11:49:27;5.70;;;3.50;;
79464;SDS011;68932;47.410;8.232;2024-03-06T11:51:57;4.30;;;3.40;;
79464;SDS011;68932;47.410;8.232;2024-03-06T11:54:26;4.20;;;3.10;;
79464;SDS011;68932;47.410;8.232;2024-03-06T11:56:56;4.60;;;3.80;;
79464;SDS011;68932;47.410;8.232;2024-03-06T11:59:26;5.00;;;3.80;;
79464;SDS011;68932;47.410;8.232;2024-03-06T12:01:55;5.70;;;4.20;;
79464;SDS011;68932;47.410;8.232;2024-03-06T12:04:24;4.60;;;3.60;;
79464;SDS011;68932;47.410;8.232;2024-03-06T12:06:56;5.70;;;4.20;;
79464;SDS011;68932;47.410;8.232;2024-03-06T12:09:25;4.10;;;3.60;;
79464;SDS011;68932;47.410;8.232;2024-03-06T12:11:55;5.20;;;4.60;;
79464;SDS011;68932;47.410;8.232;2024-03-06T12:14:23;4.40;;;4.00;;
79464;SDS011;68932;47.410;8.232;2024-03-06T12:16:58;4.30;;;3.70;;
79464;SDS011;68932;47.410;8.232;2024-03-06T12:19:27;4.60;;;4.00;;
79464;SDS011;68932;47.410;8.232;2024-03-06T12:22:00;4.10;;;3.70;;
79464;SDS011;68932;47.410;8.232;2024-03-06T12:24:29;5.00;;;4.50;;
79464;SDS011;68932;47.410;8.232;2024-03-06T12:27:01;5.40;;;4.10;;
79464;SDS011;68932;47.410;8.232;2024-03-06T12:29:30;3.30;;;2.70;;
79464;SDS011;68932;47.410;8.232;2024-03-06T12:32:00;4.20;;;3.20;;
79464;SDS011;68932;47.410;8.232;2024-03-06T12:34:29;3.50;;;3.00;;
79464;SDS011;68932;47.410;8.232;2024-03-06T12:36:58;3.20;;;2.90;;
79464;SDS011;68932;47.410;8.232;2024-03-06T12:42:03;3.10;;;2.50;;
79464;SDS011;68932;47.410;8.232;2024-03-06T12:44:31;3.10;;;2.50;;
79464;SDS011;68932;47.410;8.232;2024-03-06T12:46:59;3.90;;;2.60;;
79464;SDS011;68932;47.410;8.232;2024-03-06T12:49:27;2.60;;;2.40;;
79464;SDS011;68932;47.410;8.232;2024-03-06T12:51:56;3.00;;;2.70;;
79464;SDS011;68932;47.410;8.232;2024-03-06T12:54:24;3.40;;;2.70;;
79464;SDS011;68932;47.410;8.232;2024-03-06T12:56:52;3.20;;;2.80;;
79464;SDS011;68932;47.410;8.232;2024-03-06T12:59:21;3.30;;;3.00;;
79464;SDS011;68932;47.410;8.232;2024-03-06T13:01:49;3.20;;;2.90;;
79464;SDS011;68932;47.410;8.232;2024-03-06T13:04:17;5.10;;;4.70;;
79464;SDS011;68932;47.410;8.232;2024-03-06T13:06:45;3.50;;;3.00;;
79464;SDS011;68932;47.410;8.232;2024-03-06T13:09:13;3.80;;;3.40;;
79464;SDS011;68932;47.410;8.232;2024-03-06T13:11:42;3.60;;;3.20;;
79464;SDS011;68932;47.410;8.232;2024-03-06T13:14:10;4.60;;;3.30;;
79464;SDS011;68932;47.410;8.232;2024-03-06T13:16:38;4.30;;;3.60;;
79464;SDS011;68932;47.410;8.232;2024-03-06T13:19:07;4.30;;;2.90;;
79464;SDS011;68932;47.410;8.232;2024-03-06T13:21:36;4.10;;;3.40;;
79464;SDS011;68932;47.410;8.232;2024-03-06T13:24:04;5.40;;;3.60;;
79464;SDS011;68932;47.410;8.232;2024-03-06T13:26:33;4.10;;;3.10;;
79464;SDS011;68932;47.410;8.232;2024-03-06T13:29:01;3.60;;;2.70;;
79464;SDS011;68932;47.410;8.232;2024-03-06T13:31:29;4.00;;;3.00;;
79464;SDS011;68932;47.410;8.232;2024-03-06T13:33:57;4.10;;;3.10;;
79464;SDS011;68932;47.410;8.232;2024-03-06T13:36:26;4.60;;;3.60;;
79464;SDS011;68932;47.410;8.232;2024-03-06T13:38:54;3.20;;;2.90;;
79464;SDS011;68932;47.410;8.232;2024-03-06T13:41:23;4.10;;;3.70;;
79464;SDS011;68932;47.410;8.232;2024-03-06T13:43:52;5.30;;;4.60;;
79464;SDS011;68932;47.410;8.232;2024-03-06T13:46:20;4.80;;;3.90;;
79464;SDS011;68932;47.410;8.232;2024-03-06T13:48:49;3.40;;;3.00;;
79464;SDS011;68932;47.410;8.232;2024-03-06T13:51:17;3.90;;;3.00;;
79464;SDS011;68932;47.410;8.232;2024-03-06T13:53:45;3.40;;;2.80;;
79464;SDS011;68932;47.410;8.232;2024-03-06T13:56:14;3.60;;;3.20;;
79464;SDS011;68932;47.410;8.232;2024-03-06T13:58:42;3.30;;;2.70;;
79464;SDS011;68932;47.410;8.232;2024-03-06T14:01:10;3.40;;;3.10;;
79464;SDS011;68932;47.410;8.232;2024-03-06T14:03:39;2.70;;;2.40;;
79464;SDS011;68932;47.410;8.232;2024-03-06T14:06:07;4.10;;;3.70;;
79464;SDS011;68932;47.410;8.232;2024-03-06T14:08:35;3.40;;;2.80;;
79464;SDS011;68932;47.410;8.232;2024-03-06T14:11:03;3.70;;;3.30;;
79464;SDS011;68932;47.410;8.232;2024-03-06T14:13:32;4.40;;;3.30;;
79464;SDS011;68932;47.410;8.232;2024-03-06T14:16:00;3.50;;;3.20;;
79464;SDS011;68932;47.410;8.232;2024-03-06T14:18:28;4.10;;;3.70;;
79464;SDS011;68932;47.410;8.232;2024-03-06T14:20:57;3.30;;;3.00;;
79464;SDS011;68932;47.410;8.232;2024-03-06T14:23:25;3.50;;;3.20;;
79464;SDS011;68932;47.410;8.232;2024-03-06T14:25:53;3.50;;;3.00;;
79464;SDS011;68932;47.410;8.232;2024-03-06T14:28:21;3.70;;;3.10;;
79464;SDS011;68932;47.410;8.232;2024-03-06T14:30:49;3.40;;;3.00;;
79464;SDS011;68932;47.410;8.232;2024-03-06T14:33:18;3.00;;;2.60;;
79464;SDS011;68932;47.410;8.232;2024-03-06T14:35:46;4.00;;;3.60;;
79464;SDS011;68932;47.410;8.232;2024-03-06T14:38:14;3.10;;;2.60;;
79464;SDS011;68932;47.410;8.232;2024-03-06T14:40:43;4.20;;;3.80;;
79464;SDS011;68932;47.410;8.232;2024-03-06T14:43:11;3.60;;;3.00;;
79464;SDS011;68932;47.410;8.232;2024-03-06T14:45:40;4.50;;;4.10;;
79464;SDS011;68932;47.410;8.232;2024-03-06T14:48:08;4.10;;;2.50;;
79464;SDS011;68932;47.410;8.232;2024-03-06T14:50:36;2.90;;;2.60;;
79464;SDS011;68932;47.410;8.232;2024-03-06T14:53:05;2.80;;;2.50;;
79464;SDS011;68932;47.410;8.232;2024-03-06T14:55:33;3.50;;;2.40;;
79464;SDS011;68932;47.410;8.232;2024-03-06T14:58:01;3.50;;;2.60;;
79464;SDS011;68932;47.410;8.232;2024-03-06T15:00:30;3.60;;;2.90;;
79464;SDS011;68932;47.410;8.232;2024-03-06T15:02:58;4.10;;;3.60;;
79464;SDS011;68932;47.410;8.232;2024-03-06T15:05:26;4.00;;;2.80;;
79464;SDS011;68932;47.410;8.232;2024-03-06T15:07:55;3.50;;;3.20;;